sensor_id;sensor_type;location;lat;lon;timestamp;pressure;altitude;pressure_sealevel;temperature;humidity
36248;BME280;22287;50.824;5.644;2023-03-01T00:01:06;102153.31;;;1.36;59.89
36248;BME280;22287;50.824;5.644;2023-03-01T00:03:33;102164.28;;;1.24;59.91
36248;BME280;22287;50.824;5.644;2023-03-01T00:06:01;102148.72;;;1.43;59.55
36248;BME280;22287;50.824;5.644;2023-03-01T00:08:28;102158.56;;;1.39;59.72
36248;BME280;22287;50.824;5.644;2023-03-01T00:11:14;102146.59;;;1.57;59.11
36248;BME280;22287;50.824;5.644;2023-03-01T00:13:41;102162.47;;;1.25;60.12
36248;BME280;22287;50.824;5.644;2023-03-01T00:16:12;102148.00;;;0.99;61.20
36248;BME280;22287;50.824;5.644;2023-03-01T00:18:39;102146.50;;;0.86;60.75
36248;BME280;22287;50.824;5.644;2023-03-01T00:21:07;102141.53;;;1.09;60.98
36248;BME280;22287;50.824;5.644;2023-03-01T00:23:34;102147.81;;;1.07;60.25
36248;BME280;22287;50.824;5.644;2023-03-01T00:26:02;102143.19;;;1.13;60.01
36248;BME280;22287;50.824;5.644;2023-03-01T00:28:29;102141.34;;;1.17;59.57
36248;BME280;22287;50.824;5.644;2023-03-01T00:30:55;102143.13;;;1.16;60.20
36248;BME280;22287;50.824;5.644;2023-03-01T00:33:22;102143.47;;;1.38;59.75
36248;BME280;22287;50.824;5.644;2023-03-01T00:35:49;102139.41;;;1.59;58.84
36248;BME280;22287;50.824;5.644;2023-03-01T00:38:16;102144.63;;;1.63;58.35
36248;BME280;22287;50.824;5.644;2023-03-01T00:40:42;102158.63;;;1.71;57.99
36248;BME280;22287;50.824;5.644;2023-03-01T00:43:09;102153.28;;;1.73;57.68
36248;BME280;22287;50.824;5.644;2023-03-01T00:45:36;102152.19;;;1.80;58.38
36248;BME280;22287;50.824;5.644;2023-03-01T00:48:03;102146.84;;;1.80;58.08
36248;BME280;22287;50.824;5.644;2023-03-01T00:50:30;102147.78;;;1.44;58.51
36248;BME280;22287;50.824;5.644;2023-03-01T00:52:57;102147.13;;;1.71;58.41
36248;BME280;22287;50.824;5.644;2023-03-01T00:55:23;102144.03;;;1.86;57.70
36248;BME280;22287;50.824;5.644;2023-03-01T00:57:50;102142.19;;;1.88;58.62
36248;BME280;22287;50.824;5.644;2023-03-01T01:00:18;102143.06;;;1.89;58.37
36248;BME280;22287;50.824;5.644;2023-03-01T01:02:46;102150.25;;;1.87;57.65
36248;BME280;22287;50.824;5.644;2023-03-01T01:05:13;102145.66;;;1.92;57.87
36248;BME280;22287;50.824;5.644;2023-03-01T01:07:40;102139.56;;;1.87;57.64
36248;BME280;22287;50.824;5.644;2023-03-01T01:10:07;102142.19;;;1.88;57.90
36248;BME280;22287;50.824;5.644;2023-03-01T01:12:34;102145.63;;;1.93;57.75
36248;BME280;22287;50.824;5.644;2023-03-01T01:15:01;102140.78;;;2.07;57.63
36248;BME280;22287;50.824;5.644;2023-03-01T01:17:28;102137.88;;;1.84;58.75
36248;BME280;22287;50.824;5.644;2023-03-01T01:19:54;102133.78;;;1.71;58.42
36248;BME280;22287;50.824;5.644;2023-03-01T01:22:22;102140.09;;;1.67;58.03
36248;BME280;22287;50.824;5.644;2023-03-01T01:24:49;102135.06;;;1.89;57.70
36248;BME280;22287;50.824;5.644;2023-03-01T01:27:15;102133.63;;;1.42;58.74
36248;BME280;22287;50.824;5.644;2023-03-01T01:29:42;102124.53;;;1.50;58.31
36248;BME280;22287;50.824;5.644;2023-03-01T01:32:09;102120.53;;;1.68;57.87
36248;BME280;22287;50.824;5.644;2023-03-01T01:34:36;102119.78;;;1.63;57.68
36248;BME280;22287;50.824;5.644;2023-03-01T01:37:02;102114.34;;;1.66;58.46
36248;BME280;22287;50.824;5.644;2023-03-01T01:39:29;102110.19;;;1.56;57.93
36248;BME280;22287;50.824;5.644;2023-03-01T01:41:56;102107.66;;;1.50;57.65
36248;BME280;22287;50.824;5.644;2023-03-01T01:44:26;102106.56;;;1.58;57.97
36248;BME280;22287;50.824;5.644;2023-03-01T01:47:05;102096.56;;;1.66;57.36
36248;BME280;22287;50.824;5.644;2023-03-01T01:49:47;102098.78;;;1.51;57.53
36248;BME280;22287;50.824;5.644;2023-03-01T01:52:27;102091.66;;;1.51;57.76
36248;BME280;22287;50.824;5.644;2023-03-01T01:55:39;102092.03;;;1.38;57.99
36248;BME280;22287;50.824;5.644;2023-03-01T01:58:02;102075.47;;;1.25;58.51
36248;BME280;22287;50.824;5.644;2023-03-01T02:00:30;102082.88;;;1.48;58.01
36248;BME280;22287;50.824;5.644;2023-03-01T02:03:10;102075.09;;;1.40;57.76
36248;BME280;22287;50.824;5.644;2023-03-01T02:08:21;102067.72;;;1.50;57.66
36248;BME280;22287;50.824;5.644;2023-03-01T02:10:50;102062.28;;;1.54;57.27
36248;BME280;22287;50.824;5.644;2023-03-01T02:13:18;102071.41;;;1.44;58.03
36248;BME280;22287;50.824;5.644;2023-03-01T02:15:45;102061.16;;;1.63;57.93
36248;BME280;22287;50.824;5.644;2023-03-01T02:18:16;102056.59;;;1.66;57.08
36248;BME280;22287;50.824;5.644;2023-03-01T02:23:41;102053.44;;;1.52;58.15
36248;BME280;22287;50.824;5.644;2023-03-01T02:28:58;102056.53;;;1.36;57.54
36248;BME280;22287;50.824;5.644;2023-03-01T02:31:25;102050.75;;;1.20;58.08
36248;BME280;22287;50.824;5.644;2023-03-01T02:34:17;102051.78;;;1.14;58.47
36248;BME280;22287;50.824;5.644;2023-03-01T02:36:54;102043.91;;;1.10;58.45
36248;BME280;22287;50.824;5.644;2023-03-01T02:39:27;102043.78;;;1.14;58.16
36248;BME280;22287;50.824;5.644;2023-03-01T02:41:56;102045.88;;;1.02;58.93
36248;BME280;22287;50.824;5.644;2023-03-01T02:44:24;102041.75;;;0.90;58.83
36248;BME280;22287;50.824;5.644;2023-03-01T02:46:53;102042.56;;;0.92;59.25
36248;BME280;22287;50.824;5.644;2023-03-01T02:49:23;102043.47;;;0.91;58.97
36248;BME280;22287;50.824;5.644;2023-03-01T02:54:28;102043.47;;;0.91;58.76
36248;BME280;22287;50.824;5.644;2023-03-01T02:56:58;102036.88;;;1.07;58.10
36248;BME280;22287;50.824;5.644;2023-03-01T02:59:30;102036.63;;;0.83;58.41
36248;BME280;22287;50.824;5.644;2023-03-01T03:01:57;102039.03;;;0.92;58.09
36248;BME280;22287;50.824;5.644;2023-03-01T03:04:24;102040.16;;;1.17;57.71
36248;BME280;22287;50.824;5.644;2023-03-01T03:06:51;102031.56;;;1.06;57.50
36248;BME280;22287;50.824;5.644;2023-03-01T03:09:18;102041.66;;;0.93;58.29
36248;BME280;22287;50.824;5.644;2023-03-01T03:11:45;102032.88;;;0.90;58.24
36248;BME280;22287;50.824;5.644;2023-03-01T03:14:14;102043.47;;;0.91;58.36
36248;BME280;22287;50.824;5.644;2023-03-01T03:16:49;102046.75;;;1.02;58.95
36248;BME280;22287;50.824;5.644;2023-03-01T03:19:18;102053.59;;;1.12;58.33
36248;BME280;22287;50.824;5.644;2023-03-01T03:21:45;102049.50;;;0.99;58.08
36248;BME280;22287;50.824;5.644;2023-03-01T03:24:12;102039.75;;;0.98;58.62
36248;BME280;22287;50.824;5.644;2023-03-01T03:26:39;102051.56;;;0.88;59.11
36248;BME280;22287;50.824;5.644;2023-03-01T03:29:06;102050.56;;;0.92;59.25
36248;BME280;22287;50.824;5.644;2023-03-01T03:31:33;102050.63;;;0.89;59.48
36248;BME280;22287;50.824;5.644;2023-03-01T03:34:00;102052.94;;;1.03;59.35
36248;BME280;22287;50.824;5.644;2023-03-01T03:36:27;102048.56;;;1.00;58.08
36248;BME280;22287;50.824;5.644;2023-03-01T03:38:53;102054.66;;;1.05;59.17
36248;BME280;22287;50.824;5.644;2023-03-01T03:41:20;102051.22;;;1.02;59.91
36248;BME280;22287;50.824;5.644;2023-03-01T03:44:01;102045.09;;;0.98;58.94
36248;BME280;22287;50.824;5.644;2023-03-01T03:46:31;102040.66;;;0.97;59.35
36248;BME280;22287;50.824;5.644;2023-03-01T03:49:13;102040.53;;;1.03;59.43
36248;BME280;22287;50.824;5.644;2023-03-01T03:51:39;102038.75;;;1.04;58.71
36248;BME280;22287;50.824;5.644;2023-03-01T03:54:06;102032.69;;;0.97;58.99
36248;BME280;22287;50.824;5.644;2023-03-01T03:56:33;102037.16;;;0.95;58.95
36248;BME280;22287;50.824;5.644;2023-03-01T03:59:00;102028.31;;;0.58;59.98
36248;BME280;22287;50.824;5.644;2023-03-01T04:01:26;102028.31;;;0.58;59.72
36248;BME280;22287;50.824;5.644;2023-03-01T04:03:53;102026.56;;;0.57;60.01
36248;BME280;22287;50.824;5.644;2023-03-01T04:06:29;102018.41;;;0.65;60.46
36248;BME280;22287;50.824;5.644;2023-03-01T04:08:56;102022.56;;;0.76;60.07
36248;BME280;22287;50.824;5.644;2023-03-01T04:11:26;102018.94;;;0.79;59.15
36248;BME280;22287;50.824;5.644;2023-03-01T04:13:55;102024.41;;;0.73;59.95
36248;BME280;22287;50.824;5.644;2023-03-01T04:16:22;102015.88;;;0.58;59.73
36248;BME280;22287;50.824;5.644;2023-03-01T04:18:50;102013.63;;;0.79;58.94
36248;BME280;22287;50.824;5.644;2023-03-01T04:21:16;102015.13;;;0.53;60.26
36248;BME280;22287;50.824;5.644;2023-03-01T04:23:43;102015.78;;;0.63;59.54
36248;BME280;22287;50.824;5.644;2023-03-01T04:26:10;102008.56;;;0.68;60.11
36248;BME280;22287;50.824;5.644;2023-03-01T04:28:39;102007.63;;;0.71;59.23
36248;BME280;22287;50.824;5.644;2023-03-01T04:31:15;102005.88;;;0.33;60.17
36248;BME280;22287;50.824;5.644;2023-03-01T04:33:51;102004.03;;;-0.05;61.87
36248;BME280;22287;50.824;5.644;2023-03-01T04:36:24;102003.84;;;0.44;61.37
36248;BME280;22287;50.824;5.644;2023-03-01T04:38:52;101994.53;;;0.23;62.28
36248;BME280;22287;50.824;5.644;2023-03-01T04:41:20;101997.31;;;0.19;61.48
36248;BME280;22287;50.824;5.644;2023-03-01T04:43:48;101977.44;;;0.35;62.31
36248;BME280;22287;50.824;5.644;2023-03-01T04:46:17;101977.19;;;0.47;61.49
36248;BME280;22287;50.824;5.644;2023-03-01T04:48:45;101975.63;;;0.37;60.85
36248;BME280;22287;50.824;5.644;2023-03-01T04:51:13;101973.91;;;0.71;60.78
36248;BME280;22287;50.824;5.644;2023-03-01T04:53:41;101981.03;;;0.69;60.02
36248;BME280;22287;50.824;5.644;2023-03-01T04:56:09;101975.97;;;0.60;60.07
36248;BME280;22287;50.824;5.644;2023-03-01T04:58:36;101978.88;;;0.49;60.57
36248;BME280;22287;50.824;5.644;2023-03-01T05:01:11;101975.91;;;0.63;60.44
36248;BME280;22287;50.824;5.644;2023-03-01T05:03:47;101977.00;;;0.53;59.78
36248;BME280;22287;50.824;5.644;2023-03-01T05:06:14;101971.53;;;0.61;59.98
36248;BME280;22287;50.824;5.644;2023-03-01T05:08:42;101971.53;;;0.59;59.49
36248;BME280;22287;50.824;5.644;2023-03-01T05:11:10;101971.84;;;0.47;59.97
36248;BME280;22287;50.824;5.644;2023-03-01T05:13:38;101973.25;;;0.25;61.07
36248;BME280;22287;50.824;5.644;2023-03-01T05:16:06;101977.88;;;0.53;60.23
36248;BME280;22287;50.824;5.644;2023-03-01T05:18:33;101974.59;;;0.42;61.03
36248;BME280;22287;50.824;5.644;2023-03-01T05:21:11;101967.72;;;0.69;60.97
36248;BME280;22287;50.824;5.644;2023-03-01T05:23:38;101973.66;;;0.45;60.78
36248;BME280;22287;50.824;5.644;2023-03-01T05:26:06;101971.00;;;0.45;60.51
36248;BME280;22287;50.824;5.644;2023-03-01T05:28:41;101975.81;;;0.28;60.92
36248;BME280;22287;50.824;5.644;2023-03-01T05:31:09;101977.06;;;0.51;60.25
36248;BME280;22287;50.824;5.644;2023-03-01T05:33:37;101973.78;;;0.39;61.38
36248;BME280;22287;50.824;5.644;2023-03-01T05:36:08;101972.63;;;0.52;61.85
36248;BME280;22287;50.824;5.644;2023-03-01T05:38:36;101976.44;;;0.40;61.58
36248;BME280;22287;50.824;5.644;2023-03-01T05:41:03;101978.47;;;0.28;60.90
36248;BME280;22287;50.824;5.644;2023-03-01T05:43:31;101982.00;;;0.30;61.42
36248;BME280;22287;50.824;5.644;2023-03-01T05:46:01;101979.97;;;0.01;61.57
36248;BME280;22287;50.824;5.644;2023-03-01T05:48:27;101990.03;;;0.27;62.48
36248;BME280;22287;50.824;5.644;2023-03-01T05:50:54;101980.09;;;-0.04;62.38
36248;BME280;22287;50.824;5.644;2023-03-01T05:53:21;101983.28;;;-0.29;63.22
36248;BME280;22287;50.824;5.644;2023-03-01T05:55:48;101980.97;;;-0.03;61.36
36248;BME280;22287;50.824;5.644;2023-03-01T05:58:18;101982.81;;;-0.08;61.51
36248;BME280;22287;50.824;5.644;2023-03-01T06:00:47;101973.97;;;-0.07;62.14
36248;BME280;22287;50.824;5.644;2023-03-01T06:03:16;101975.72;;;-0.08;62.08
36248;BME280;22287;50.824;5.644;2023-03-01T06:05:43;101980.16;;;-0.07;62.25
36248;BME280;22287;50.824;5.644;2023-03-01T06:08:12;101973.72;;;0.05;61.11
36248;BME280;22287;50.824;5.644;2023-03-01T06:10:39;101975.19;;;0.17;61.33
36248;BME280;22287;50.824;5.644;2023-03-01T06:13:06;101975.59;;;-0.02;62.09
36248;BME280;22287;50.824;5.644;2023-03-01T06:15:33;101973.06;;;-0.06;61.65
36248;BME280;22287;50.824;5.644;2023-03-01T06:18:00;101973.00;;;-0.05;61.82
36248;BME280;22287;50.824;5.644;2023-03-01T06:20:28;101970.22;;;0.02;60.82
36248;BME280;22287;50.824;5.644;2023-03-01T06:22:55;101968.09;;;-0.23;61.61
36248;BME280;22287;50.824;5.644;2023-03-01T06:25:25;101977.44;;;-0.05;60.42
36248;BME280;22287;50.824;5.644;2023-03-01T06:27:52;101978.47;;;-0.11;61.12
36248;BME280;22287;50.824;5.644;2023-03-01T06:30:21;101970.75;;;-0.23;60.71
36248;BME280;22287;50.824;5.644;2023-03-01T06:32:49;101971.72;;;-0.27;60.11
36248;BME280;22287;50.824;5.644;2023-03-01T06:35:17;101958.63;;;-0.36;60.52
36248;BME280;22287;50.824;5.644;2023-03-01T06:37:46;101966.81;;;-0.46;60.32
36248;BME280;22287;50.824;5.644;2023-03-01T06:40:13;101963.16;;;-0.41;59.96
36248;BME280;22287;50.824;5.644;2023-03-01T06:42:42;101967.69;;;-0.44;60.71
36248;BME280;22287;50.824;5.644;2023-03-01T06:45:09;101972.13;;;-0.46;60.09
36248;BME280;22287;50.824;5.644;2023-03-01T06:47:36;101967.72;;;-0.47;61.05
36248;BME280;22287;50.824;5.644;2023-03-01T06:50:03;101979.47;;;-0.59;60.96
36248;BME280;22287;50.824;5.644;2023-03-01T06:52:31;101987.44;;;-0.59;60.86
36248;BME280;22287;50.824;5.644;2023-03-01T06:54:58;101982.78;;;-0.49;60.72
36248;BME280;22287;50.824;5.644;2023-03-01T06:57:25;101977.31;;;-0.40;60.36
36248;BME280;22287;50.824;5.644;2023-03-01T06:59:52;101975.31;;;-0.28;60.23
36248;BME280;22287;50.824;5.644;2023-03-01T07:02:19;101982.31;;;-0.70;60.88
36248;BME280;22287;50.824;5.644;2023-03-01T07:04:46;101970.28;;;-0.43;61.70
36248;BME280;22287;50.824;5.644;2023-03-01T07:07:13;101978.63;;;-0.61;62.66
36248;BME280;22287;50.824;5.644;2023-03-01T07:09:39;101971.41;;;-0.12;61.49
36248;BME280;22287;50.824;5.644;2023-03-01T07:12:06;101977.03;;;-0.27;62.07
36248;BME280;22287;50.824;5.644;2023-03-01T07:14:34;101973.25;;;-0.15;62.20
36248;BME280;22287;50.824;5.644;2023-03-01T07:17:01;101977.91;;;-0.69;63.32
36248;BME280;22287;50.824;5.644;2023-03-01T07:19:28;101974.97;;;-0.13;63.15
36248;BME280;22287;50.824;5.644;2023-03-01T07:21:54;101977.81;;;-0.22;63.72
36248;BME280;22287;50.824;5.644;2023-03-01T07:24:22;101971.75;;;0.12;62.75
36248;BME280;22287;50.824;5.644;2023-03-01T07:26:50;101967.22;;;0.17;62.89
36248;BME280;22287;50.824;5.644;2023-03-01T07:29:17;101969.44;;;-0.91;66.03
36248;BME280;22287;50.824;5.644;2023-03-01T07:31:44;101972.19;;;-0.08;63.94
36248;BME280;22287;50.824;5.644;2023-03-01T07:34:11;101968.63;;;-0.06;63.95
36248;BME280;22287;50.824;5.644;2023-03-01T07:36:38;101970.00;;;-0.28;65.88
36248;BME280;22287;50.824;5.644;2023-03-01T07:39:06;101962.69;;;0.22;64.02
36248;BME280;22287;50.824;5.644;2023-03-01T07:41:33;101976.38;;;0.04;65.58
36248;BME280;22287;50.824;5.644;2023-03-01T07:43:59;101971.06;;;0.04;65.60
36248;BME280;22287;50.824;5.644;2023-03-01T07:46:26;101965.78;;;-0.39;65.97
36248;BME280;22287;50.824;5.644;2023-03-01T07:48:53;101968.91;;;-0.19;65.43
36248;BME280;22287;50.824;5.644;2023-03-01T07:51:20;101966.88;;;0.32;64.48
36248;BME280;22287;50.824;5.644;2023-03-01T07:53:48;101957.38;;;0.58;63.51
36248;BME280;22287;50.824;5.644;2023-03-01T07:56:15;101963.53;;;0.24;64.95
36248;BME280;22287;50.824;5.644;2023-03-01T07:58:44;101961.34;;;0.41;64.38
36248;BME280;22287;50.824;5.644;2023-03-01T08:01:14;101967.66;;;0.37;64.57
36248;BME280;22287;50.824;5.644;2023-03-01T08:03:42;101963.09;;;0.42;64.82
36248;BME280;22287;50.824;5.644;2023-03-01T08:06:11;101964.88;;;1.12;63.10
36248;BME280;22287;50.824;5.644;2023-03-01T08:08:39;101956.81;;;1.15;62.66
36248;BME280;22287;50.824;5.644;2023-03-01T08:11:09;101960.91;;;0.59;63.51
36248;BME280;22287;50.824;5.644;2023-03-01T08:13:36;101963.03;;;0.80;63.75
36248;BME280;22287;50.824;5.644;2023-03-01T08:16:05;101958.44;;;1.21;62.99
36248;BME280;22287;50.824;5.644;2023-03-01T08:18:33;101944.00;;;1.60;61.88
36248;BME280;22287;50.824;5.644;2023-03-01T08:21:08;101941.81;;;2.03;60.51
36248;BME280;22287;50.824;5.644;2023-03-01T08:23:35;101943.44;;;1.49;61.40
36248;BME280;22287;50.824;5.644;2023-03-01T08:26:09;101932.38;;;1.32;62.59
36248;BME280;22287;50.824;5.644;2023-03-01T08:28:36;101942.56;;;1.48;62.67
36248;BME280;22287;50.824;5.644;2023-03-01T08:31:12;101930.03;;;1.52;62.06
36248;BME280;22287;50.824;5.644;2023-03-01T08:33:39;101934.63;;;1.14;63.66
36248;BME280;22287;50.824;5.644;2023-03-01T08:36:06;101925.28;;;1.63;61.83
36248;BME280;22287;50.824;5.644;2023-03-01T08:38:34;101924.47;;;2.46;60.51
36248;BME280;22287;50.824;5.644;2023-03-01T08:41:02;101925.28;;;2.48;59.78
36248;BME280;22287;50.824;5.644;2023-03-01T08:43:29;101928.00;;;2.18;59.68
36248;BME280;22287;50.824;5.644;2023-03-01T08:45:56;101925.72;;;1.77;61.80
36248;BME280;22287;50.824;5.644;2023-03-01T08:48:24;101912.47;;;2.03;61.06
36248;BME280;22287;50.824;5.644;2023-03-01T08:50:51;101905.66;;;2.49;60.72
36248;BME280;22287;50.824;5.644;2023-03-01T08:53:18;101910.44;;;2.11;60.51
36248;BME280;22287;50.824;5.644;2023-03-01T08:55:45;101913.31;;;1.76;62.74
36248;BME280;22287;50.824;5.644;2023-03-01T08:58:12;101909.97;;;1.99;61.81
36248;BME280;22287;50.824;5.644;2023-03-01T09:00:38;101909.81;;;2.03;61.90
36248;BME280;22287;50.824;5.644;2023-03-01T09:03:06;101918.28;;;2.44;61.08
36248;BME280;22287;50.824;5.644;2023-03-01T09:05:34;101913.63;;;1.95;61.96
36248;BME280;22287;50.824;5.644;2023-03-01T09:08:01;101906.13;;;2.35;60.92
36248;BME280;22287;50.824;5.644;2023-03-01T09:10:27;101907.94;;;2.07;61.42
36248;BME280;22287;50.824;5.644;2023-03-01T09:12:54;101907.81;;;2.90;59.50
36248;BME280;22287;50.824;5.644;2023-03-01T09:15:21;101912.28;;;2.63;60.14
36248;BME280;22287;50.824;5.644;2023-03-01T09:17:48;101917.28;;;2.74;59.76
36248;BME280;22287;50.824;5.644;2023-03-01T09:20:14;101916.59;;;2.41;61.21
36248;BME280;22287;50.824;5.644;2023-03-01T09:22:41;101916.84;;;2.33;60.62
36248;BME280;22287;50.824;5.644;2023-03-01T09:25:08;101905.31;;;2.05;60.46
36248;BME280;22287;50.824;5.644;2023-03-01T09:27:36;101906.88;;;1.54;61.46
36248;BME280;22287;50.824;5.644;2023-03-01T09:30:03;101902.97;;;2.22;59.88
36248;BME280;22287;50.824;5.644;2023-03-01T09:32:30;101904.41;;;2.06;60.54
36248;BME280;22287;50.824;5.644;2023-03-01T09:37:43;101899.59;;;2.17;58.57
36248;BME280;22287;50.824;5.644;2023-03-01T09:40:16;101900.03;;;2.58;58.23
36248;BME280;22287;50.824;5.644;2023-03-01T09:42:54;101900.75;;;2.09;59.44
36248;BME280;22287;50.824;5.644;2023-03-01T09:45:29;101895.88;;;2.21;59.74
36248;BME280;22287;50.824;5.644;2023-03-01T09:48:00;101898.69;;;2.71;58.05
36248;BME280;22287;50.824;5.644;2023-03-01T09:50:33;101895.59;;;2.83;57.88
36248;BME280;22287;50.824;5.644;2023-03-01T09:53:13;101900.03;;;2.84;57.78
36248;BME280;22287;50.824;5.644;2023-03-01T10:04:24;101892.28;;;3.01;57.25
36248;BME280;22287;50.824;5.644;2023-03-01T10:09:40;101878.34;;;3.42;55.92
36248;BME280;22287;50.824;5.644;2023-03-01T10:12:35;101881.03;;;3.41;55.45
36248;BME280;22287;50.824;5.644;2023-03-01T10:15:10;101869.84;;;3.54;54.95
36248;BME280;22287;50.824;5.644;2023-03-01T10:17:45;101868.34;;;3.47;55.89
36248;BME280;22287;50.824;5.644;2023-03-01T10:20:15;101854.03;;;3.48;55.98
36248;BME280;22287;50.824;5.644;2023-03-01T10:22:43;101854.09;;;3.47;56.07
36248;BME280;22287;50.824;5.644;2023-03-01T10:25:14;101848.47;;;3.99;54.33
36248;BME280;22287;50.824;5.644;2023-03-01T10:27:54;101846.69;;;3.53;55.22
36248;BME280;22287;50.824;5.644;2023-03-01T10:30:36;101833.97;;;4.05;54.99
36248;BME280;22287;50.824;5.644;2023-03-01T10:33:29;101839.88;;;4.35;53.01
36248;BME280;22287;50.824;5.644;2023-03-01T10:35:57;101833.00;;;4.69;52.06
36248;BME280;22287;50.824;5.644;2023-03-01T10:38:24;101830.28;;;4.91;51.52
36248;BME280;22287;50.824;5.644;2023-03-01T10:40:57;101834.84;;;4.27;53.51
36248;BME280;22287;50.824;5.644;2023-03-01T10:43:40;101830.91;;;4.78;52.63
36248;BME280;22287;50.824;5.644;2023-03-01T10:49:18;101832.53;;;4.60;52.25
36248;BME280;22287;50.824;5.644;2023-03-01T10:51:48;101810.75;;;4.69;51.63
36248;BME280;22287;50.824;5.644;2023-03-01T10:54:27;101825.31;;;3.98;53.71
36248;BME280;22287;50.824;5.644;2023-03-01T10:56:57;101813.72;;;4.61;52.68
36248;BME280;22287;50.824;5.644;2023-03-01T11:02:28;101810.03;;;4.44;52.52
36248;BME280;22287;50.824;5.644;2023-03-01T11:04:59;101812.38;;;4.51;52.06
36248;BME280;22287;50.824;5.644;2023-03-01T11:07:26;101803.22;;;4.15;52.67
36248;BME280;22287;50.824;5.644;2023-03-01T11:09:54;101804.88;;;4.39;52.58
36248;BME280;22287;50.824;5.644;2023-03-01T11:12:21;101811.16;;;4.80;52.02
36248;BME280;22287;50.824;5.644;2023-03-01T11:14:59;101796.81;;;4.61;51.60
36248;BME280;22287;50.824;5.644;2023-03-01T11:17:30;101798.06;;;4.72;51.10
36248;BME280;22287;50.824;5.644;2023-03-01T11:22:47;101797.78;;;4.99;51.49
36248;BME280;22287;50.824;5.644;2023-03-01T11:25:17;101794.31;;;5.36;50.99
36248;BME280;22287;50.824;5.644;2023-03-01T11:27:46;101801.16;;;5.22;50.17
36248;BME280;22287;50.824;5.644;2023-03-01T11:35:37;101791.50;;;5.57;49.65
36248;BME280;22287;50.824;5.644;2023-03-01T11:38:16;101779.28;;;5.13;50.60
36248;BME280;22287;50.824;5.644;2023-03-01T11:41:10;101788.81;;;5.57;49.46
36248;BME280;22287;50.824;5.644;2023-03-01T11:44:11;101774.00;;;5.67;48.86
36248;BME280;22287;50.824;5.644;2023-03-01T11:49:27;101776.09;;;5.98;47.98
36248;BME280;22287;50.824;5.644;2023-03-01T11:52:13;101777.34;;;5.54;49.30
36248;BME280;22287;50.824;5.644;2023-03-01T12:22:38;101746.41;;;6.54;46.48
36248;BME280;22287;50.824;5.644;2023-03-01T12:25:25;101739.84;;;6.42;45.82
36248;BME280;22287;50.824;5.644;2023-03-01T12:50:47;101668.75;;;6.49;46.92
36248;BME280;22287;50.824;5.644;2023-03-01T12:53:39;101668.47;;;7.04;47.37
36248;BME280;22287;50.824;5.644;2023-03-01T12:56:11;101660.91;;;8.03;44.23
36248;BME280;22287;50.824;5.644;2023-03-01T13:12:03;101653.00;;;7.70;44.33
36248;BME280;22287;50.824;5.644;2023-03-01T13:14:45;101664.56;;;6.77;46.83
36248;BME280;22287;50.824;5.644;2023-03-01T13:17:30;101668.06;;;6.29;47.25
36248;BME280;22287;50.824;5.644;2023-03-01T13:19:58;101655.09;;;7.02;46.87
36248;BME280;22287;50.824;5.644;2023-03-01T13:22:30;101649.63;;;7.20;44.92
36248;BME280;22287;50.824;5.644;2023-03-01T13:25:11;101633.34;;;7.68;44.90
36248;BME280;22287;50.824;5.644;2023-03-01T13:27:39;101640.09;;;7.45;45.00
36248;BME280;22287;50.824;5.644;2023-03-01T13:35:54;101626.66;;;6.98;45.52
36248;BME280;22287;50.824;5.644;2023-03-01T13:41:16;101627.63;;;7.29;44.57
36248;BME280;22287;50.824;5.644;2023-03-01T13:43:45;101625.38;;;7.66;43.88
36248;BME280;22287;50.824;5.644;2023-03-01T13:48:45;101617.97;;;7.25;44.54
36248;BME280;22287;50.824;5.644;2023-03-01T13:51:13;101623.97;;;6.98;44.41
36248;BME280;22287;50.824;5.644;2023-03-01T13:53:44;101625.03;;;6.63;44.82
36248;BME280;22287;50.824;5.644;2023-03-01T13:56:36;101627.50;;;6.83;44.89
36248;BME280;22287;50.824;5.644;2023-03-01T13:59:23;101622.66;;;7.37;43.71
36248;BME280;22287;50.824;5.644;2023-03-01T14:02:13;101607.97;;;7.58;42.66
36248;BME280;22287;50.824;5.644;2023-03-01T14:04:58;101625.53;;;7.79;41.68
36248;BME280;22287;50.824;5.644;2023-03-01T14:07:39;101611.56;;;7.27;42.94
36248;BME280;22287;50.824;5.644;2023-03-01T14:10:21;101609.06;;;6.93;43.81
36248;BME280;22287;50.824;5.644;2023-03-01T14:21:17;101591.88;;;8.16;41.20
36248;BME280;22287;50.824;5.644;2023-03-01T14:23:45;101574.94;;;8.00;41.96
36248;BME280;22287;50.824;5.644;2023-03-01T14:26:13;101576.34;;;7.91;42.77
36248;BME280;22287;50.824;5.644;2023-03-01T14:28:42;101584.00;;;8.13;43.53
36248;BME280;22287;50.824;5.644;2023-03-01T14:31:44;101575.88;;;7.99;42.30
36248;BME280;22287;50.824;5.644;2023-03-01T14:34:25;101583.06;;;7.54;42.87
36248;BME280;22287;50.824;5.644;2023-03-01T14:37:09;101572.78;;;7.16;43.66
36248;BME280;22287;50.824;5.644;2023-03-01T14:39:51;101570.53;;;7.24;43.28
36248;BME280;22287;50.824;5.644;2023-03-01T14:42:19;101571.75;;;7.63;42.85
36248;BME280;22287;50.824;5.644;2023-03-01T14:44:49;101569.25;;;7.60;43.84
36248;BME280;22287;50.824;5.644;2023-03-01T14:47:32;101557.84;;;7.41;43.35
36248;BME280;22287;50.824;5.644;2023-03-01T14:50:02;101558.91;;;7.39;43.58
36248;BME280;22287;50.824;5.644;2023-03-01T14:52:36;101548.66;;;7.45;43.37
36248;BME280;22287;50.824;5.644;2023-03-01T14:55:06;101548.97;;;7.09;43.56
36248;BME280;22287;50.824;5.644;2023-03-01T14:57:33;101545.97;;;7.30;43.01
36248;BME280;22287;50.824;5.644;2023-03-01T15:00:03;101538.97;;;7.57;42.56
36248;BME280;22287;50.824;5.644;2023-03-01T15:02:32;101548.19;;;7.53;42.77
36248;BME280;22287;50.824;5.644;2023-03-01T15:05:02;101552.44;;;7.12;43.21
36248;BME280;22287;50.824;5.644;2023-03-01T15:07:37;101540.06;;;7.39;42.75
36248;BME280;22287;50.824;5.644;2023-03-01T15:10:07;101541.59;;;7.58;41.86
36248;BME280;22287;50.824;5.644;2023-03-01T15:12:41;101538.59;;;7.33;41.55
36248;BME280;22287;50.824;5.644;2023-03-01T15:18:00;101543.69;;;7.38;41.46
36248;BME280;22287;50.824;5.644;2023-03-01T15:20:29;101536.91;;;7.17;42.11
36248;BME280;22287;50.824;5.644;2023-03-01T15:23:02;101538.53;;;7.19;41.70
36248;BME280;22287;50.824;5.644;2023-03-01T15:25:32;101539.59;;;7.17;42.74